createdAt,value
2019-05-12T00:02:18.514Z,101068.92
2019-05-12T00:04:52.238Z,101071.48
2019-05-12T00:07:28.574Z,101080.33
2019-05-12T00:10:02.674Z,101083.16
2019-05-12T00:12:35.172Z,101083.57
2019-05-12T00:15:08.514Z,101088.48
2019-05-12T00:17:41.264Z,101085.95
2019-05-12T00:20:13.853Z,101084.87
2019-05-12T00:22:50.962Z,101089.45
2019-05-12T00:25:23.647Z,101090.42
2019-05-12T00:27:58.661Z,101099.98
2019-05-12T00:30:34.496Z,101097.33
2019-05-12T00:33:09.401Z,101102.57
2019-05-12T00:35:43.235Z,101102.27
2019-05-12T00:38:17.649Z,101111.73
2019-05-12T00:40:50.459Z,101115.05
2019-05-12T00:43:22.953Z,101121.63
2019-05-12T00:45:55.538Z,101121.61
2019-05-12T00:48:28.559Z,101122.67
2019-05-12T00:51:01.176Z,101125.37
2019-05-12T00:53:39.829Z,101130.57
2019-05-12T00:56:19.614Z,101134.02
2019-05-12T00:58:52.966Z,101138.32
2019-05-12T01:01:25.634Z,101150.42
2019-05-12T01:03:58.115Z,101151.05
2019-05-12T01:06:30.990Z,101154.11
2019-05-12T01:09:05.449Z,101156.46
2019-05-12T01:11:38.026Z,101157.02
2019-05-12T01:14:10.704Z,101153.89
2019-05-12T01:16:43.315Z,101167.86
2019-05-12T01:19:18.356Z,101178.44
2019-05-12T01:21:51.299Z,101175.82
2019-05-12T01:24:23.957Z,101186.51
2019-05-12T01:26:58.246Z,101187.52
2019-05-12T01:29:30.931Z,101191.52
2019-05-12T01:32:20.080Z,101194.32
2019-05-12T01:34:53.558Z,101196.78
2019-05-12T01:37:28.019Z,101202.78
2019-05-12T01:40:01.526Z,101206.73
2019-05-12T01:42:34.615Z,101209.36
2019-05-12T01:45:09.003Z,101210.54
2019-05-12T01:47:44.803Z,101212.36
2019-05-12T01:50:19.936Z,101217.13
2019-05-12T01:52:53.535Z,101229.64
2019-05-12T01:55:28.105Z,101231.69
2019-05-12T01:58:01.518Z,101236.10
2019-05-12T02:00:38.371Z,101234.72
2019-05-12T02:03:12.351Z,101237.97
2019-05-12T02:05:49.187Z,101238.05
2019-05-12T02:08:31.531Z,101240.64
2019-05-12T02:11:09.998Z,101244.98
2019-05-12T02:13:45.016Z,101251.27
2019-05-12T02:16:18.794Z,101255.20
2019-05-12T02:18:51.507Z,101256.75
2019-05-12T02:21:24.757Z,101262.09
2019-05-12T02:23:58.546Z,101270.70
2019-05-12T02:26:31.669Z,101276.67
2019-05-12T02:29:10.899Z,101274.73
2019-05-12T02:31:50.208Z,101279.91
2019-05-12T02:34:26.711Z,101275.64
2019-05-12T02:37:05.267Z,101281.84
2019-05-12T02:39:40.570Z,101280.56
2019-05-12T02:42:16.688Z,101280.97
2019-05-12T02:44:49.449Z,101278.33
2019-05-12T02:47:24.193Z,101285.25
2019-05-12T02:49:56.920Z,101285.71
2019-05-12T02:52:29.424Z,101293.08
2019-05-12T02:55:05.933Z,101291.13
2019-05-12T02:57:39.324Z,101296.97
2019-05-12T03:00:15.867Z,101301.45
2019-05-12T03:02:48.986Z,101306.41
2019-05-12T03:05:24.575Z,101310.20
2019-05-12T03:07:58.493Z,101310.41
2019-05-12T03:10:30.977Z,101311.49
2019-05-12T03:13:04.473Z,101312.23
2019-05-12T03:15:37.779Z,101321.66
2019-05-12T03:18:10.559Z,101324.95
2019-05-12T03:20:45.481Z,101331.45
2019-05-12T03:23:19.169Z,101336.41
2019-05-12T03:25:54.646Z,101341.05
2019-05-12T03:28:27.606Z,101343.61
2019-05-12T03:31:06.585Z,101342.33
2019-05-12T03:33:43.478Z,101349.73
2019-05-12T03:36:31.993Z,101353.57
2019-05-12T03:39:08.837Z,101361.70
2019-05-12T03:41:44.317Z,101357.00
2019-05-12T03:44:17.500Z,101364.12
2019-05-12T03:46:50.092Z,101374.12
2019-05-12T03:49:24.467Z,101374.19
2019-05-12T03:51:57.240Z,101371.95
2019-05-12T03:54:29.903Z,101381.34
2019-05-12T03:57:04.527Z,101387.48
2019-05-12T03:59:37.306Z,101391.64
2019-05-12T04:02:09.761Z,101391.59
2019-05-12T04:04:45.354Z,101396.08
2019-05-12T04:07:18.032Z,101397.98
2019-05-12T04:09:50.670Z,101406.11
2019-05-12T04:12:25.468Z,101404.69
2019-05-12T04:14:58.210Z,101408.25
2019-05-12T04:17:30.843Z,101409.50
2019-05-12T04:20:04.914Z,101410.02
2019-05-12T04:22:37.850Z,101418.22
2019-05-12T04:25:10.442Z,101417.14
2019-05-12T04:27:45.060Z,101430.05
2019-05-12T04:30:17.449Z,101439.39
2019-05-12T04:32:50.201Z,101445.93
2019-05-12T04:35:25.153Z,101445.28
2019-05-12T04:37:58.197Z,101447.52
2019-05-12T04:40:30.817Z,101457.41
2019-05-12T04:43:05.760Z,101455.29
2019-05-12T04:45:39.466Z,101458.06
2019-05-12T04:48:15.559Z,101464.30
2019-05-12T04:50:54.648Z,101469.56
2019-05-12T04:53:27.627Z,101471.33
2019-05-12T04:56:10.640Z,101466.92
2019-05-12T04:58:48.094Z,101465.62
2019-05-12T05:01:20.712Z,101467.46
2019-05-12T05:03:54.526Z,101477.09
2019-05-12T05:06:27.321Z,101485.08
2019-05-12T05:09:00.485Z,101497.00
2019-05-12T05:11:34.509Z,101500.14
2019-05-12T05:14:07.257Z,101501.20
2019-05-12T05:16:40.547Z,101507.75
2019-05-12T05:19:13.897Z,101505.22
2019-05-12T05:21:47.974Z,101515.95
2019-05-12T05:24:23.424Z,101518.69
2019-05-12T05:26:56.340Z,101522.29
2019-05-12T05:29:29.148Z,101531.70
2019-05-12T05:32:03.533Z,101536.30
2019-05-12T05:34:36.113Z,101548.43
2019-05-12T05:37:08.586Z,101553.24
2019-05-12T05:39:46.391Z,101554.39
2019-05-12T05:42:22.026Z,101557.12
2019-05-12T05:45:00.518Z,101560.83
2019-05-12T05:47:35.330Z,101565.58
2019-05-12T05:50:08.151Z,101566.06
2019-05-12T05:52:40.882Z,101569.52
2019-05-12T05:55:19.738Z,101566.92
2019-05-12T05:57:53.606Z,101568.10
2019-05-12T06:00:26.435Z,101574.45
2019-05-12T06:03:00.887Z,101574.83
2019-05-12T06:05:34.281Z,101578.95
2019-05-12T06:08:16.580Z,101578.28
2019-05-12T06:10:55.088Z,101573.34
2019-05-12T06:13:31.953Z,101580.06
2019-05-12T06:16:11.732Z,101579.50
2019-05-12T06:18:54.428Z,101581.52
2019-05-12T06:21:29.147Z,101586.91
2019-05-12T06:24:08.757Z,101587.17
2019-05-12T06:26:56.792Z,101600.38
2019-05-12T06:29:33.395Z,101601.45
2019-05-12T06:32:10.659Z,101602.23
2019-05-12T06:34:50.813Z,101606.83
2019-05-12T06:37:28.203Z,101610.78
2019-05-12T06:40:03.394Z,101621.50
2019-05-12T06:42:36.420Z,101626.08
2019-05-12T06:45:08.868Z,101621.52
2019-05-12T06:47:47.441Z,101629.61
2019-05-12T06:50:23.745Z,101626.79
2019-05-12T06:52:56.401Z,101630.29
2019-05-12T06:55:34.356Z,101630.73
2019-05-12T06:58:13.993Z,101628.38
2019-05-12T07:00:46.634Z,101640.52
2019-05-12T07:03:26.193Z,101630.38
2019-05-12T07:06:04.163Z,101637.45
2019-05-12T07:08:38.505Z,101638.06
2019-05-12T07:11:14.289Z,101643.22
2019-05-12T07:14:01.004Z,101644.20
2019-05-12T07:16:36.919Z,101638.70
2019-05-12T07:19:20.528Z,101640.47
2019-05-12T07:21:58.146Z,101653.02
2019-05-12T07:24:34.167Z,101649.45
2019-05-12T07:27:09.193Z,101651.22
2019-05-12T07:29:43.616Z,101659.86
2019-05-12T07:32:21.526Z,101660.03
2019-05-12T07:34:56.938Z,101659.64
2019-05-12T07:37:30.140Z,101666.17
2019-05-12T07:40:04.926Z,101669.31
2019-05-12T07:42:39.488Z,101669.72
2019-05-12T07:45:20.591Z,101671.14
2019-05-12T07:47:59.572Z,101676.70
2019-05-12T07:50:39.898Z,101671.92
2019-05-12T07:53:14.520Z,101669.77
2019-05-12T07:55:49.377Z,101663.67
2019-05-12T07:58:23.934Z,101658.36
2019-05-12T08:01:02.347Z,101661.95
2019-05-12T08:03:43.523Z,101665.91
2019-05-12T08:06:16.650Z,101665.34
2019-05-12T08:08:58.119Z,101667.13
2019-05-12T08:11:37.506Z,101668.75
2019-05-12T08:14:29.453Z,101673.14
2019-05-12T08:17:11.116Z,101670.64
2019-05-12T08:19:46.775Z,101675.23
2019-05-12T08:22:25.150Z,101676.33
2019-05-12T08:25:04.374Z,101674.30
2019-05-12T08:27:39.201Z,101681.60
2019-05-12T08:30:34.672Z,101690.95
2019-05-12T08:33:10.953Z,101688.95
2019-05-12T08:35:44.173Z,101691.39
2019-05-12T08:38:17.044Z,101691.06
2019-05-12T08:40:54.271Z,101690.91
2019-05-12T08:43:28.332Z,101688.33
2019-05-12T08:48:44.576Z,101685.05
2019-05-12T08:51:20.078Z,101688.46
2019-05-12T08:54:01.740Z,101682.86
2019-05-12T08:56:37.020Z,101687.50
2019-05-12T08:59:17.586Z,101691.25
2019-05-12T09:02:00.560Z,101693.12
2019-05-12T09:04:45.397Z,101695.30
2019-05-12T09:07:24.248Z,101696.02
2019-05-12T09:09:56.952Z,101690.48
2019-05-12T09:12:29.776Z,101697.81
2019-05-12T09:15:08.423Z,101697.89
2019-05-12T09:17:49.028Z,101693.74
2019-05-12T09:20:25.455Z,101693.05
2019-05-12T09:23:00.675Z,101697.64
2019-05-12T09:25:39.495Z,101687.66
2019-05-12T09:28:16.802Z,101694.45
2019-05-12T09:30:49.552Z,101697.81
2019-05-12T09:33:27.566Z,101707.34
2019-05-12T09:36:05.494Z,101708.84
2019-05-12T09:38:41.085Z,101704.28
2019-05-12T09:41:17.709Z,101717.36
2019-05-12T09:43:53.032Z,101708.72
2019-05-12T09:46:28.357Z,101706.27
2019-05-12T09:49:06.489Z,101703.24
2019-05-12T09:51:45.704Z,101708.97
2019-05-12T09:54:27.829Z,101707.58
2019-05-12T09:57:08.084Z,101708.80
2019-05-12T09:59:45.946Z,101713.08
2019-05-12T10:02:28.960Z,101710.01
2019-05-12T10:05:03.744Z,101711.23
2019-05-12T10:07:37.410Z,101715.77
2019-05-12T10:10:10.126Z,101717.05
2019-05-12T10:12:50.331Z,101729.64
2019-05-12T10:15:28.654Z,101736.42
2019-05-12T10:18:06.422Z,101732.75
2019-05-12T10:20:47.051Z,101736.80
2019-05-12T10:23:27.237Z,101731.55
2019-05-12T10:26:09.444Z,101735.31
2019-05-12T10:28:52.047Z,101743.02
2019-05-12T10:31:34.801Z,101734.27
2019-05-12T10:34:17.171Z,101734.38
2019-05-12T10:36:53.761Z,101734.70
2019-05-12T10:39:26.822Z,101739.24
2019-05-12T10:41:59.461Z,101736.95
2019-05-12T10:44:37.722Z,101737.22
2019-05-12T10:47:13.597Z,101734.73
2019-05-12T10:49:46.969Z,101727.25
2019-05-12T10:52:19.661Z,101729.13
2019-05-12T10:54:53.832Z,101737.91
2019-05-12T10:57:28.220Z,101731.92
2019-05-12T11:00:04.198Z,101732.72
2019-05-12T11:02:41.835Z,101728.77
2019-05-12T11:05:21.324Z,101732.80
2019-05-12T11:08:00.346Z,101725.30
2019-05-12T11:10:40.400Z,101736.78
2019-05-12T11:13:14.200Z,101731.42
2019-05-12T11:15:49.837Z,101732.02
2019-05-12T11:18:26.057Z,101738.45
2019-05-12T11:21:03.610Z,101729.63
2019-05-12T11:23:36.404Z,101735.86
2019-05-12T11:26:09.005Z,101729.52
2019-05-12T11:28:44.727Z,101736.95
2019-05-12T11:31:18.004Z,101732.53
2019-05-12T11:33:53.938Z,101740.12
2019-05-12T11:36:28.999Z,101740.30
2019-05-12T11:39:03.651Z,101734.18
2019-05-12T11:41:36.287Z,101741.13
2019-05-12T11:44:09.052Z,101740.78
2019-05-12T11:46:44.039Z,101739.33
2019-05-12T11:49:21.839Z,101743.13
2019-05-12T11:52:07.346Z,101747.60
2019-05-12T11:54:47.219Z,101746.19
2019-05-12T11:57:28.247Z,101741.70
2019-05-12T12:00:09.924Z,101745.31
2019-05-12T12:02:45.232Z,101737.42
2019-05-12T12:05:17.964Z,101737.49
2019-05-12T12:07:52.792Z,101742.68
2019-05-12T12:10:29.384Z,101742.22
2019-05-12T12:13:06.981Z,101748.66
2019-05-12T12:15:43.205Z,101750.02
2019-05-12T12:18:17.411Z,101751.22
2019-05-12T12:20:55.059Z,101756.70
2019-05-12T12:23:40.972Z,101757.19
2019-05-12T12:26:26.105Z,101752.22
2019-05-12T12:29:05.796Z,101756.17
2019-05-12T12:31:49.703Z,101756.88
2019-05-12T12:34:25.019Z,101755.31
2019-05-12T12:37:03.341Z,101753.48
2019-05-12T12:39:37.173Z,101757.74
2019-05-12T12:42:10.698Z,101768.73
2019-05-12T12:44:45.179Z,101773.53
2019-05-12T12:47:18.694Z,101773.25
2019-05-12T12:49:52.133Z,101775.58
2019-05-12T12:52:24.756Z,101783.17
2019-05-12T12:55:05.268Z,101776.56
2019-05-12T12:57:46.482Z,101774.00
2019-05-12T13:00:32.171Z,101766.47
2019-05-12T13:03:07.908Z,101760.48
2019-05-12T13:05:43.709Z,101765.27
2019-05-12T13:08:18.139Z,101771.85
2019-05-12T13:10:55.308Z,101771.09
2019-05-12T13:13:28.906Z,101767.09
2019-05-12T13:16:03.895Z,101774.92
2019-05-12T13:18:39.357Z,101775.66
2019-05-12T13:21:13.874Z,101770.66
2019-05-12T13:23:47.143Z,101776.91
2019-05-12T13:26:23.834Z,101776.10
2019-05-12T13:29:03.910Z,101779.83
2019-05-12T13:31:41.148Z,101782.23
2019-05-12T13:34:20.469Z,101783.97
2019-05-12T13:36:54.552Z,101786.86
2019-05-12T13:39:28.722Z,101784.28
2019-05-12T13:42:03.293Z,101784.92
2019-05-12T13:44:40.487Z,101783.09
2019-05-12T13:47:14.284Z,101783.31
2019-05-12T13:49:54.446Z,101777.67
2019-05-12T13:52:30.267Z,101777.04
2019-05-12T13:55:05.670Z,101777.55
2019-05-12T13:57:46.689Z,101777.88
2019-05-12T14:00:25.538Z,101796.67
2019-05-12T14:03:04.576Z,101797.13
2019-05-12T14:05:44.769Z,101802.52
2019-05-12T14:08:23.783Z,101806.08
2019-05-12T14:10:59.576Z,101800.28
2019-05-12T14:13:41.423Z,101801.74
2019-05-12T14:16:16.580Z,101802.03
2019-05-12T14:19:00.400Z,101806.05
2019-05-12T14:21:41.108Z,101801.45
2019-05-12T14:24:16.062Z,101798.98
2019-05-12T14:26:49.566Z,101802.95
2019-05-12T14:29:26.637Z,101807.52
2019-05-12T14:32:05.380Z,101810.73
2019-05-12T14:34:38.402Z,101804.74
2019-05-12T14:37:14.051Z,101803.52
2019-05-12T14:39:50.446Z,101806.14
2019-05-12T14:42:26.058Z,101809.93
2019-05-12T14:45:06.957Z,101803.84
2019-05-12T14:47:43.431Z,101793.13
2019-05-12T14:50:16.288Z,101795.92
2019-05-12T14:52:57.756Z,101797.62
2019-05-12T14:55:34.257Z,101789.66
2019-05-12T14:58:20.532Z,101800.45
2019-05-12T15:00:58.340Z,101796.20
2019-05-12T15:03:34.076Z,101800.58
2019-05-12T15:06:08.821Z,101805.14
2019-05-12T15:08:45.485Z,101805.41
2019-05-12T15:11:18.141Z,101809.44
2019-05-12T15:13:50.748Z,101813.95
2019-05-12T15:18:49.141Z,101808.27
2019-05-12T15:21:31.266Z,101808.65
2019-05-12T15:24:09.048Z,101808.97
2019-05-12T15:26:50.681Z,101806.58
2019-05-12T15:29:28.824Z,101815.91
2019-05-12T15:32:03.908Z,101820.13
2019-05-12T15:34:38.419Z,101825.63
2019-05-12T15:37:11.583Z,101820.92
2019-05-12T15:39:46.838Z,101822.99
2019-05-12T15:42:23.415Z,101825.41
2019-05-12T15:44:56.997Z,101830.70
2019-05-12T15:47:30.046Z,101835.53
2019-05-12T15:50:04.062Z,101838.16
2019-05-12T15:52:42.206Z,101839.09
2019-05-12T15:55:18.420Z,101834.44
2019-05-12T15:57:51.792Z,101841.97
2019-05-12T16:00:25.144Z,101845.77
2019-05-12T16:02:57.737Z,101848.05
2019-05-12T16:05:31.281Z,101848.66
2019-05-12T16:08:06.233Z,101853.95
2019-05-12T16:10:39.131Z,101859.19
2019-05-12T16:13:15.590Z,101858.88
2019-05-12T16:15:54.420Z,101862.59
2019-05-12T16:18:30.514Z,101864.20
2019-05-12T16:21:09.352Z,101869.28
2019-05-12T16:23:44.705Z,101872.68
2019-05-12T16:26:20.185Z,101872.23
2019-05-12T16:29:02.560Z,101875.70
2019-05-12T16:31:45.571Z,101879.05
2019-05-12T16:34:23.263Z,101874.95
2019-05-12T16:36:57.152Z,101874.59
2019-05-12T16:39:37.031Z,101873.18
2019-05-12T16:42:16.347Z,101872.62
2019-05-12T16:44:50.399Z,101865.67
2019-05-12T16:47:28.910Z,101863.05
2019-05-12T16:50:08.529Z,101865.33
2019-05-12T16:52:54.933Z,101863.14
2019-05-12T16:55:44.936Z,101861.75
2019-05-12T16:58:24.488Z,101867.46
2019-05-12T17:01:08.765Z,101869.46
2019-05-12T17:03:44.451Z,101870.39
2019-05-12T17:06:20.142Z,101868.02
2019-05-12T17:08:55.595Z,101868.41
2019-05-12T17:11:31.024Z,101869.42
2019-05-12T17:14:05.050Z,101869.86
2019-05-12T17:16:45.126Z,101866.05
2019-05-12T17:19:20.112Z,101872.76
2019-05-12T17:21:57.643Z,101872.92
2019-05-12T17:24:34.439Z,101879.72
2019-05-12T17:27:09.234Z,101879.82
2019-05-12T17:29:47.129Z,101880.94
2019-05-12T17:32:19.834Z,101890.85
2019-05-12T17:34:56.023Z,101897.25
2019-05-12T17:37:31.373Z,101901.17
2019-05-12T17:40:15.446Z,101903.34
2019-05-12T17:42:57.534Z,101907.89
2019-05-12T17:45:39.072Z,101908.49
2019-05-12T17:48:14.321Z,101910.21
2019-05-12T17:50:50.615Z,101906.92
2019-05-12T17:53:36.078Z,101906.23
2019-05-12T17:56:13.772Z,101908.92
2019-05-12T17:58:47.668Z,101905.95
2019-05-12T18:01:31.021Z,101904.16
2019-05-12T18:04:07.518Z,101907.63
2019-05-12T18:06:40.839Z,101908.76
2019-05-12T18:09:19.587Z,101911.03
2019-05-12T18:11:56.408Z,101913.50
2019-05-12T18:14:29.058Z,101913.84
2019-05-12T18:17:08.613Z,101913.65
2019-05-12T18:19:44.273Z,101913.39
2019-05-12T18:22:23.424Z,101920.10
2019-05-12T18:24:56.797Z,101925.21
2019-05-12T18:27:36.645Z,101928.98
2019-05-12T18:30:19.279Z,101929.67
2019-05-12T18:32:54.991Z,101934.98
2019-05-12T18:35:37.853Z,101934.75
2019-05-12T18:38:18.193Z,101935.95
2019-05-12T18:40:56.143Z,101933.25
2019-05-12T18:43:29.227Z,101935.18
2019-05-12T18:46:06.306Z,101941.04
2019-05-12T18:48:43.859Z,101941.05
2019-05-12T18:51:19.808Z,101945.95
2019-05-12T18:53:56.035Z,101947.30
2019-05-12T18:56:33.808Z,101950.31
2019-05-12T18:59:16.896Z,101953.28
2019-05-12T19:01:55.531Z,101949.28
2019-05-12T19:04:33.944Z,101953.64
2019-05-12T19:07:38.673Z,101956.47
2019-05-12T19:10:14.805Z,101957.70
2019-05-12T19:12:51.751Z,101959.77
2019-05-12T19:15:30.200Z,101961.93
2019-05-12T19:18:05.754Z,101963.20
2019-05-12T19:20:38.829Z,101968.62
2019-05-12T19:23:14.199Z,101969.06
2019-05-12T19:25:50.867Z,101977.73
2019-05-12T19:28:26.886Z,101973.09
2019-05-12T19:31:06.164Z,101978.91
2019-05-12T19:33:56.704Z,101982.80
2019-05-12T19:36:50.613Z,101990.02
2019-05-12T19:39:26.488Z,101998.73
2019-05-12T19:42:05.216Z,102003.16
2019-05-12T19:44:43.762Z,102005.30
2019-05-12T19:47:21.258Z,102002.70
2019-05-12T19:50:09.676Z,102006.70
2019-05-12T19:52:47.312Z,102002.97
2019-05-12T19:55:20.297Z,102006.89
2019-05-12T19:58:02.551Z,102012.84
2019-05-12T20:00:44.107Z,102013.19
2019-05-12T20:03:18.140Z,102012.84
2019-05-12T20:05:53.818Z,102018.02
2019-05-12T20:08:27.656Z,102016.32
2019-05-12T20:11:20.109Z,102014.65
2019-05-12T20:13:59.568Z,102015.80
2019-05-12T20:16:34.484Z,102021.36
2019-05-12T20:19:07.577Z,102024.14
2019-05-12T20:21:47.354Z,102030.42
2019-05-12T20:24:20.508Z,102037.48
2019-05-12T20:26:53.896Z,102039.18
2019-05-12T20:29:33.526Z,102044.97
2019-05-12T20:32:07.918Z,102047.22
2019-05-12T20:34:50.996Z,102046.06
2019-05-12T20:37:25.877Z,102048.91
2019-05-12T20:40:05.081Z,102049.23
2019-05-12T20:42:47.557Z,102055.19
2019-05-12T20:45:42.282Z,102059.53
2019-05-12T20:48:19.616Z,102058.72
2019-05-12T20:50:58.230Z,102066.76
2019-05-12T20:53:38.549Z,102067.41
2019-05-12T20:56:12.269Z,102068.02
2019-05-12T20:58:51.932Z,102070.41
2019-05-12T21:01:30.375Z,102075.59
2019-05-12T21:04:03.689Z,102077.73
2019-05-12T21:06:41.981Z,102079.05
2019-05-12T21:09:16.863Z,102085.36
2019-05-12T21:11:50.908Z,102088.75
2019-05-12T21:14:25.078Z,102085.16
2019-05-12T21:16:57.618Z,102088.58
2019-05-12T21:19:35.713Z,102089.58
2019-05-12T21:22:11.492Z,102088.66
2019-05-12T21:24:46.370Z,102094.59
2019-05-12T21:27:19.965Z,102099.34
2019-05-12T21:29:54.100Z,102098.89
2019-05-12T21:32:26.678Z,102099.05
2019-05-12T21:35:15.735Z,102099.22
2019-05-12T21:37:56.611Z,102101.52
2019-05-12T21:40:30.741Z,102104.13
2019-05-12T21:43:08.651Z,102103.09
2019-05-12T21:45:41.194Z,102105.88
2019-05-12T21:48:23.828Z,102109.00
2019-05-12T21:51:00.143Z,102105.10
2019-05-12T21:53:34.511Z,102110.04
2019-05-12T21:56:08.274Z,102114.13
2019-05-12T21:58:45.504Z,102113.34
2019-05-12T22:01:27.135Z,102114.38
2019-05-12T22:04:02.449Z,102116.00
2019-05-12T22:06:36.242Z,102118.88
2019-05-12T22:09:08.803Z,102122.59
2019-05-12T22:11:50.168Z,102128.02
2019-05-12T22:14:30.531Z,102128.96
2019-05-12T22:17:13.524Z,102129.00
2019-05-12T22:19:53.563Z,102133.77
2019-05-12T22:22:29.973Z,102133.50
2019-05-12T22:25:02.919Z,102137.69
2019-05-12T22:27:36.019Z,102143.47
2019-05-12T22:30:13.522Z,102144.65
2019-05-12T22:32:47.227Z,102148.32
2019-05-12T22:35:22.024Z,102155.21
2019-05-12T22:37:58.656Z,102158.11
2019-05-12T22:40:31.212Z,102162.50
2019-05-12T22:43:04.420Z,102161.55
2019-05-12T22:45:44.183Z,102167.46
2019-05-12T22:48:19.047Z,102172.58
2019-05-12T22:50:51.663Z,102167.09
2019-05-12T22:53:29.818Z,102179.08
2019-05-12T22:56:12.306Z,102169.89
2019-05-12T22:58:52.103Z,102176.91
2019-05-12T23:01:41.233Z,102177.33
2019-05-12T23:04:19.815Z,102180.84
2019-05-12T23:06:53.595Z,102177.82
2019-05-12T23:09:30.161Z,102179.98
2019-05-12T23:12:09.526Z,102179.41
2019-05-12T23:14:47.479Z,102180.48
2019-05-12T23:17:20.097Z,102178.67
2019-05-12T23:19:55.692Z,102179.25
2019-05-12T23:22:35.090Z,102175.75
2019-05-12T23:25:11.585Z,102177.88
2019-05-12T23:27:54.079Z,102175.83
2019-05-12T23:30:30.955Z,102173.02
2019-05-12T23:33:04.321Z,102170.11
2019-05-12T23:35:39.643Z,102169.83
2019-05-12T23:38:18.698Z,102173.11
2019-05-12T23:40:53.847Z,102179.49
2019-05-12T23:43:26.578Z,102172.13
2019-05-12T23:46:01.950Z,102171.88
2019-05-12T23:48:37.512Z,102170.91
2019-05-12T23:51:10.091Z,102172.22
2019-05-12T23:53:44.996Z,102172.97
2019-05-12T23:56:19.388Z,102174.33
2019-05-12T23:58:53.832Z,102174.05
